sensor_id;sensor_type;location;lat;lon;timestamp;temperature;humidity
10155;DHT22;5118;48.570;7.916;2022-11-14T00:01:18;7.30;99.90
10155;DHT22;5118;48.570;7.916;2022-11-14T00:04:08;7.30;99.90
10155;DHT22;5118;48.570;7.916;2022-11-14T00:06:55;7.30;99.90
10155;DHT22;5118;48.570;7.916;2022-11-14T00:09:42;7.30;99.90
10155;DHT22;5118;48.570;7.916;2022-11-14T00:12:29;7.30;99.90
10155;DHT22;5118;48.570;7.916;2022-11-14T00:15:16;7.30;99.90
10155;DHT22;5118;48.570;7.916;2022-11-14T00:18:03;7.30;99.90
10155;DHT22;5118;48.570;7.916;2022-11-14T00:20:52;7.30;99.90
10155;DHT22;5118;48.570;7.916;2022-11-14T00:23:39;7.30;99.90
10155;DHT22;5118;48.570;7.916;2022-11-14T00:26:26;7.30;99.90
10155;DHT22;5118;48.570;7.916;2022-11-14T00:29:14;7.30;99.90
10155;DHT22;5118;48.570;7.916;2022-11-14T00:32:01;7.30;99.90
10155;DHT22;5118;48.570;7.916;2022-11-14T00:34:48;7.30;99.90
10155;DHT22;5118;48.570;7.916;2022-11-14T00:37:36;7.30;99.90
10155;DHT22;5118;48.570;7.916;2022-11-14T00:40:23;7.30;99.90
10155;DHT22;5118;48.570;7.916;2022-11-14T00:43:11;7.30;99.90
10155;DHT22;5118;48.570;7.916;2022-11-14T00:45:58;7.30;99.90
10155;DHT22;5118;48.570;7.916;2022-11-14T00:48:46;7.20;99.90
10155;DHT22;5118;48.570;7.916;2022-11-14T00:51:32;7.20;99.90
10155;DHT22;5118;48.570;7.916;2022-11-14T00:54:20;7.20;99.90
10155;DHT22;5118;48.570;7.916;2022-11-14T00:57:07;7.20;99.90
10155;DHT22;5118;48.570;7.916;2022-11-14T00:59:54;7.20;99.90
10155;DHT22;5118;48.570;7.916;2022-11-14T01:02:43;7.20;99.90
10155;DHT22;5118;48.570;7.916;2022-11-14T01:05:30;7.20;99.90
10155;DHT22;5118;48.570;7.916;2022-11-14T01:08:17;7.20;99.90
10155;DHT22;5118;48.570;7.916;2022-11-14T01:11:10;7.20;99.90
10155;DHT22;5118;48.570;7.916;2022-11-14T01:13:57;7.20;99.90
10155;DHT22;5118;48.570;7.916;2022-11-14T01:16:44;7.20;99.90
10155;DHT22;5118;48.570;7.916;2022-11-14T01:19:32;7.20;99.90
10155;DHT22;5118;48.570;7.916;2022-11-14T01:22:19;7.20;99.90
10155;DHT22;5118;48.570;7.916;2022-11-14T01:25:07;7.20;99.90
10155;DHT22;5118;48.570;7.916;2022-11-14T01:27:55;7.20;99.90
10155;DHT22;5118;48.570;7.916;2022-11-14T01:30:43;7.20;99.90
10155;DHT22;5118;48.570;7.916;2022-11-14T01:33:29;7.20;99.90
10155;DHT22;5118;48.570;7.916;2022-11-14T01:36:17;7.20;99.90
10155;DHT22;5118;48.570;7.916;2022-11-14T01:39:04;7.30;99.90
10155;DHT22;5118;48.570;7.916;2022-11-14T01:41:51;7.30;99.90
10155;DHT22;5118;48.570;7.916;2022-11-14T01:44:45;7.30;99.90
10155;DHT22;5118;48.570;7.916;2022-11-14T01:47:32;7.30;99.90
10155;DHT22;5118;48.570;7.916;2022-11-14T01:50:19;7.30;99.90
10155;DHT22;5118;48.570;7.916;2022-11-14T01:53:06;7.20;99.90
10155;DHT22;5118;48.570;7.916;2022-11-14T01:55:55;7.20;99.90
10155;DHT22;5118;48.570;7.916;2022-11-14T01:58:48;7.20;99.90
10155;DHT22;5118;48.570;7.916;2022-11-14T02:01:41;7.20;99.90
10155;DHT22;5118;48.570;7.916;2022-11-14T02:04:36;7.20;99.90
10155;DHT22;5118;48.570;7.916;2022-11-14T02:07:26;7.20;99.90
10155;DHT22;5118;48.570;7.916;2022-11-14T02:10:16;7.20;99.90
10155;DHT22;5118;48.570;7.916;2022-11-14T02:13:03;7.20;99.90
10155;DHT22;5118;48.570;7.916;2022-11-14T02:15:51;7.20;99.90
10155;DHT22;5118;48.570;7.916;2022-11-14T02:18:40;7.20;99.90
10155;DHT22;5118;48.570;7.916;2022-11-14T02:21:28;7.10;99.90
10155;DHT22;5118;48.570;7.916;2022-11-14T02:24:15;7.10;99.90
10155;DHT22;5118;48.570;7.916;2022-11-14T02:27:03;7.00;99.90
10155;DHT22;5118;48.570;7.916;2022-11-14T02:29:52;7.00;99.90
10155;DHT22;5118;48.570;7.916;2022-11-14T02:32:39;7.00;99.90
10155;DHT22;5118;48.570;7.916;2022-11-14T02:35:46;6.90;99.90
10155;DHT22;5118;48.570;7.916;2022-11-14T02:38:34;6.90;99.90
10155;DHT22;5118;48.570;7.916;2022-11-14T02:41:21;6.80;99.90
10155;DHT22;5118;48.570;7.916;2022-11-14T02:44:08;6.80;99.90
10155;DHT22;5118;48.570;7.916;2022-11-14T02:46:55;6.70;99.90
10155;DHT22;5118;48.570;7.916;2022-11-14T02:49:42;6.70;99.90
10155;DHT22;5118;48.570;7.916;2022-11-14T02:52:29;6.70;99.90
10155;DHT22;5118;48.570;7.916;2022-11-14T02:55:17;6.70;99.90
10155;DHT22;5118;48.570;7.916;2022-11-14T02:58:04;6.70;99.90
10155;DHT22;5118;48.570;7.916;2022-11-14T03:00:52;6.70;99.90
10155;DHT22;5118;48.570;7.916;2022-11-14T03:03:58;6.70;99.90
10155;DHT22;5118;48.570;7.916;2022-11-14T03:06:45;6.70;99.90
10155;DHT22;5118;48.570;7.916;2022-11-14T03:09:32;6.70;99.90
10155;DHT22;5118;48.570;7.916;2022-11-14T03:12:20;6.70;99.90
10155;DHT22;5118;48.570;7.916;2022-11-14T03:15:08;6.60;99.90
10155;DHT22;5118;48.570;7.916;2022-11-14T03:17:56;6.60;99.90
10155;DHT22;5118;48.570;7.916;2022-11-14T03:20:44;6.60;99.90
10155;DHT22;5118;48.570;7.916;2022-11-14T03:23:31;6.60;99.90
10155;DHT22;5118;48.570;7.916;2022-11-14T03:26:19;6.50;99.90
10155;DHT22;5118;48.570;7.916;2022-11-14T03:29:07;6.50;99.90
10155;DHT22;5118;48.570;7.916;2022-11-14T03:31:55;6.50;99.90
10155;DHT22;5118;48.570;7.916;2022-11-14T03:34:41;6.50;99.90
10155;DHT22;5118;48.570;7.916;2022-11-14T03:37:28;6.50;99.90
10155;DHT22;5118;48.570;7.916;2022-11-14T03:40:16;6.40;99.90
10155;DHT22;5118;48.570;7.916;2022-11-14T03:43:03;6.40;99.90
10155;DHT22;5118;48.570;7.916;2022-11-14T03:45:52;6.40;99.90
10155;DHT22;5118;48.570;7.916;2022-11-14T03:48:38;6.50;99.90
10155;DHT22;5118;48.570;7.916;2022-11-14T03:51:25;6.40;99.90
10155;DHT22;5118;48.570;7.916;2022-11-14T03:54:12;6.50;99.90
10155;DHT22;5118;48.570;7.916;2022-11-14T03:56:59;6.50;99.90
10155;DHT22;5118;48.570;7.916;2022-11-14T03:59:47;6.50;99.90
10155;DHT22;5118;48.570;7.916;2022-11-14T04:02:35;6.50;99.90
10155;DHT22;5118;48.570;7.916;2022-11-14T04:05:22;6.50;99.90
10155;DHT22;5118;48.570;7.916;2022-11-14T04:08:09;6.50;99.90
10155;DHT22;5118;48.570;7.916;2022-11-14T04:10:56;6.60;99.90
10155;DHT22;5118;48.570;7.916;2022-11-14T04:13:43;6.60;99.90
10155;DHT22;5118;48.570;7.916;2022-11-14T04:16:30;6.60;99.90
10155;DHT22;5118;48.570;7.916;2022-11-14T04:19:18;6.60;99.90
10155;DHT22;5118;48.570;7.916;2022-11-14T04:22:05;6.50;99.90
10155;DHT22;5118;48.570;7.916;2022-11-14T04:24:52;6.60;99.90
10155;DHT22;5118;48.570;7.916;2022-11-14T04:27:39;6.60;99.90
10155;DHT22;5118;48.570;7.916;2022-11-14T04:30:26;6.50;99.90
10155;DHT22;5118;48.570;7.916;2022-11-14T04:33:19;6.50;99.90
10155;DHT22;5118;48.570;7.916;2022-11-14T04:36:08;6.50;99.90
10155;DHT22;5118;48.570;7.916;2022-11-14T04:38:55;6.50;99.90
10155;DHT22;5118;48.570;7.916;2022-11-14T04:41:42;6.50;99.90
10155;DHT22;5118;48.570;7.916;2022-11-14T04:44:30;6.50;99.90
10155;DHT22;5118;48.570;7.916;2022-11-14T04:47:16;6.50;99.90
10155;DHT22;5118;48.570;7.916;2022-11-14T04:50:04;6.50;99.90
10155;DHT22;5118;48.570;7.916;2022-11-14T04:52:52;6.50;99.90
10155;DHT22;5118;48.570;7.916;2022-11-14T04:55:39;6.50;99.90
10155;DHT22;5118;48.570;7.916;2022-11-14T04:58:26;6.50;99.90
10155;DHT22;5118;48.570;7.916;2022-11-14T05:01:14;6.50;99.90
10155;DHT22;5118;48.570;7.916;2022-11-14T05:04:02;6.50;99.90
10155;DHT22;5118;48.570;7.916;2022-11-14T05:06:49;6.50;99.90
10155;DHT22;5118;48.570;7.916;2022-11-14T05:09:39;6.50;99.90
10155;DHT22;5118;48.570;7.916;2022-11-14T05:12:26;6.50;99.90
10155;DHT22;5118;48.570;7.916;2022-11-14T05:15:14;6.50;99.90
10155;DHT22;5118;48.570;7.916;2022-11-14T05:18:01;6.50;99.90
10155;DHT22;5118;48.570;7.916;2022-11-14T05:20:47;6.50;99.90
10155;DHT22;5118;48.570;7.916;2022-11-14T05:23:34;6.50;99.90
10155;DHT22;5118;48.570;7.916;2022-11-14T05:26:23;6.50;99.90
10155;DHT22;5118;48.570;7.916;2022-11-14T05:29:10;6.50;99.90
10155;DHT22;5118;48.570;7.916;2022-11-14T05:31:57;6.50;99.90
10155;DHT22;5118;48.570;7.916;2022-11-14T05:34:45;6.50;99.90
10155;DHT22;5118;48.570;7.916;2022-11-14T05:37:33;6.50;99.90
10155;DHT22;5118;48.570;7.916;2022-11-14T05:40:20;6.50;99.90
10155;DHT22;5118;48.570;7.916;2022-11-14T05:43:08;6.50;99.90
10155;DHT22;5118;48.570;7.916;2022-11-14T05:45:58;6.50;99.90
10155;DHT22;5118;48.570;7.916;2022-11-14T05:48:45;6.50;99.90
10155;DHT22;5118;48.570;7.916;2022-11-14T05:51:32;6.50;99.90
10155;DHT22;5118;48.570;7.916;2022-11-14T05:54:19;6.50;99.90
10155;DHT22;5118;48.570;7.916;2022-11-14T05:57:06;6.50;99.90
10155;DHT22;5118;48.570;7.916;2022-11-14T05:59:54;6.50;99.90
10155;DHT22;5118;48.570;7.916;2022-11-14T06:02:41;6.50;99.90
10155;DHT22;5118;48.570;7.916;2022-11-14T06:05:30;6.40;99.90
10155;DHT22;5118;48.570;7.916;2022-11-14T06:08:17;6.40;99.90
10155;DHT22;5118;48.570;7.916;2022-11-14T06:11:05;6.40;99.90
10155;DHT22;5118;48.570;7.916;2022-11-14T06:13:53;6.40;99.90
10155;DHT22;5118;48.570;7.916;2022-11-14T06:16:41;6.40;99.90
10155;DHT22;5118;48.570;7.916;2022-11-14T06:19:29;6.30;99.90
10155;DHT22;5118;48.570;7.916;2022-11-14T06:22:16;6.30;99.90
10155;DHT22;5118;48.570;7.916;2022-11-14T06:25:04;6.30;99.90
10155;DHT22;5118;48.570;7.916;2022-11-14T06:27:51;6.30;99.90
10155;DHT22;5118;48.570;7.916;2022-11-14T06:30:41;6.30;99.90
10155;DHT22;5118;48.570;7.916;2022-11-14T06:33:33;6.30;99.90
10155;DHT22;5118;48.570;7.916;2022-11-14T06:36:20;6.30;99.90
10155;DHT22;5118;48.570;7.916;2022-11-14T06:39:07;6.30;99.90
10155;DHT22;5118;48.570;7.916;2022-11-14T06:41:54;6.30;99.90
10155;DHT22;5118;48.570;7.916;2022-11-14T06:44:41;6.30;99.90
10155;DHT22;5118;48.570;7.916;2022-11-14T06:47:28;6.30;99.90
10155;DHT22;5118;48.570;7.916;2022-11-14T06:50:16;6.30;99.90
10155;DHT22;5118;48.570;7.916;2022-11-14T06:53:03;6.30;99.90
10155;DHT22;5118;48.570;7.916;2022-11-14T06:55:54;6.30;99.90
10155;DHT22;5118;48.570;7.916;2022-11-14T06:58:43;6.30;99.90
10155;DHT22;5118;48.570;7.916;2022-11-14T07:01:30;6.30;99.90
10155;DHT22;5118;48.570;7.916;2022-11-14T07:04:18;6.30;99.90
10155;DHT22;5118;48.570;7.916;2022-11-14T07:07:06;6.30;99.90
10155;DHT22;5118;48.570;7.916;2022-11-14T07:09:53;6.40;99.90
10155;DHT22;5118;48.570;7.916;2022-11-14T07:12:41;6.40;99.90
10155;DHT22;5118;48.570;7.916;2022-11-14T07:15:28;6.40;99.90
10155;DHT22;5118;48.570;7.916;2022-11-14T07:18:15;6.40;99.90
10155;DHT22;5118;48.570;7.916;2022-11-14T07:21:03;6.50;99.90
10155;DHT22;5118;48.570;7.916;2022-11-14T07:23:53;6.50;99.90
10155;DHT22;5118;48.570;7.916;2022-11-14T07:26:39;6.60;99.90
10155;DHT22;5118;48.570;7.916;2022-11-14T07:29:26;6.60;99.90
10155;DHT22;5118;48.570;7.916;2022-11-14T07:32:13;6.70;99.90
10155;DHT22;5118;48.570;7.916;2022-11-14T07:35:01;6.70;99.90
10155;DHT22;5118;48.570;7.916;2022-11-14T07:37:48;6.80;99.90
10155;DHT22;5118;48.570;7.916;2022-11-14T07:40:36;6.80;99.90
10155;DHT22;5118;48.570;7.916;2022-11-14T07:43:24;6.90;99.90
10155;DHT22;5118;48.570;7.916;2022-11-14T07:46:12;7.00;99.90
10155;DHT22;5118;48.570;7.916;2022-11-14T07:49:00;7.10;99.90
10155;DHT22;5118;48.570;7.916;2022-11-14T07:51:46;7.10;99.90
10155;DHT22;5118;48.570;7.916;2022-11-14T07:54:33;7.10;99.90
10155;DHT22;5118;48.570;7.916;2022-11-14T07:57:21;7.10;99.90
10155;DHT22;5118;48.570;7.916;2022-11-14T08:00:10;7.10;99.90
10155;DHT22;5118;48.570;7.916;2022-11-14T08:02:57;7.10;99.90
10155;DHT22;5118;48.570;7.916;2022-11-14T08:05:44;7.20;99.90
10155;DHT22;5118;48.570;7.916;2022-11-14T08:08:31;7.30;99.90
10155;DHT22;5118;48.570;7.916;2022-11-14T08:11:18;7.40;99.90
10155;DHT22;5118;48.570;7.916;2022-11-14T08:14:27;7.40;99.90
10155;DHT22;5118;48.570;7.916;2022-11-14T08:17:14;7.50;99.90
10155;DHT22;5118;48.570;7.916;2022-11-14T08:20:02;7.60;99.90
10155;DHT22;5118;48.570;7.916;2022-11-14T08:22:49;7.60;99.90
10155;DHT22;5118;48.570;7.916;2022-11-14T08:25:36;7.70;99.90
10155;DHT22;5118;48.570;7.916;2022-11-14T08:28:23;7.80;99.90
10155;DHT22;5118;48.570;7.916;2022-11-14T08:31:13;7.80;99.90
10155;DHT22;5118;48.570;7.916;2022-11-14T08:34:00;7.80;99.90
10155;DHT22;5118;48.570;7.916;2022-11-14T08:36:47;7.80;99.90
10155;DHT22;5118;48.570;7.916;2022-11-14T08:39:34;7.80;99.90
10155;DHT22;5118;48.570;7.916;2022-11-14T08:42:21;7.80;99.90
10155;DHT22;5118;48.570;7.916;2022-11-14T08:45:09;7.80;99.90
10155;DHT22;5118;48.570;7.916;2022-11-14T08:47:58;7.80;99.90
10155;DHT22;5118;48.570;7.916;2022-11-14T08:50:45;7.80;99.90
10155;DHT22;5118;48.570;7.916;2022-11-14T08:53:33;7.80;99.90
10155;DHT22;5118;48.570;7.916;2022-11-14T08:56:20;7.90;99.90
10155;DHT22;5118;48.570;7.916;2022-11-14T08:59:07;7.90;99.90
10155;DHT22;5118;48.570;7.916;2022-11-14T09:01:54;8.00;99.90
10155;DHT22;5118;48.570;7.916;2022-11-14T09:04:42;8.00;99.90
10155;DHT22;5118;48.570;7.916;2022-11-14T09:07:30;8.00;99.90
10155;DHT22;5118;48.570;7.916;2022-11-14T09:10:17;8.10;99.90
10155;DHT22;5118;48.570;7.916;2022-11-14T09:13:04;8.10;99.90
10155;DHT22;5118;48.570;7.916;2022-11-14T09:15:51;8.20;99.90
10155;DHT22;5118;48.570;7.916;2022-11-14T09:18:38;8.10;99.90
10155;DHT22;5118;48.570;7.916;2022-11-14T09:21:27;8.20;99.90
10155;DHT22;5118;48.570;7.916;2022-11-14T09:24:14;8.10;99.90
10155;DHT22;5118;48.570;7.916;2022-11-14T09:27:02;8.20;99.90
10155;DHT22;5118;48.570;7.916;2022-11-14T09:29:49;8.10;99.90
10155;DHT22;5118;48.570;7.916;2022-11-14T09:32:36;8.10;99.90
10155;DHT22;5118;48.570;7.916;2022-11-14T09:35:23;8.10;99.90
10155;DHT22;5118;48.570;7.916;2022-11-14T09:38:11;8.10;99.90
10155;DHT22;5118;48.570;7.916;2022-11-14T09:41:08;8.10;99.90
10155;DHT22;5118;48.570;7.916;2022-11-14T09:44:24;8.10;99.90
10155;DHT22;5118;48.570;7.916;2022-11-14T09:47:17;8.10;99.90
10155;DHT22;5118;48.570;7.916;2022-11-14T09:50:12;8.10;99.90
10155;DHT22;5118;48.570;7.916;2022-11-14T09:53:04;8.20;99.90
10155;DHT22;5118;48.570;7.916;2022-11-14T09:55:53;8.20;99.90
10155;DHT22;5118;48.570;7.916;2022-11-14T09:58:40;8.30;99.90
10155;DHT22;5118;48.570;7.916;2022-11-14T10:01:34;8.30;99.90
10155;DHT22;5118;48.570;7.916;2022-11-14T10:04:27;8.30;99.90
10155;DHT22;5118;48.570;7.916;2022-11-14T10:07:25;8.30;99.90
10155;DHT22;5118;48.570;7.916;2022-11-14T10:10:22;8.20;99.90
10155;DHT22;5118;48.570;7.916;2022-11-14T10:13:22;8.20;99.90
10155;DHT22;5118;48.570;7.916;2022-11-14T10:16:17;8.20;99.90
10155;DHT22;5118;48.570;7.916;2022-11-14T10:19:17;8.20;99.90
10155;DHT22;5118;48.570;7.916;2022-11-14T10:22:17;8.20;99.90
10155;DHT22;5118;48.570;7.916;2022-11-14T10:25:23;8.20;99.90
10155;DHT22;5118;48.570;7.916;2022-11-14T10:31:38;8.20;99.90
10155;DHT22;5118;48.570;7.916;2022-11-14T10:34:30;8.30;99.90
10155;DHT22;5118;48.570;7.916;2022-11-14T10:37:25;8.30;99.90
10155;DHT22;5118;48.570;7.916;2022-11-14T10:40:16;8.30;99.90
10155;DHT22;5118;48.570;7.916;2022-11-14T10:43:15;8.40;99.90
10155;DHT22;5118;48.570;7.916;2022-11-14T10:46:08;8.50;99.90
10155;DHT22;5118;48.570;7.916;2022-11-14T10:48:58;8.60;99.90
10155;DHT22;5118;48.570;7.916;2022-11-14T10:51:48;8.70;99.90
10155;DHT22;5118;48.570;7.916;2022-11-14T10:54:39;8.80;99.90
10155;DHT22;5118;48.570;7.916;2022-11-14T10:57:27;9.00;99.90
10155;DHT22;5118;48.570;7.916;2022-11-14T11:00:16;9.10;99.90
10155;DHT22;5118;48.570;7.916;2022-11-14T11:03:05;9.30;99.90
10155;DHT22;5118;48.570;7.916;2022-11-14T11:05:52;9.40;99.90
10155;DHT22;5118;48.570;7.916;2022-11-14T11:08:42;9.50;99.90
10155;DHT22;5118;48.570;7.916;2022-11-14T11:11:54;9.60;99.90
10155;DHT22;5118;48.570;7.916;2022-11-14T11:14:43;9.70;99.90
10155;DHT22;5118;48.570;7.916;2022-11-14T11:17:30;9.80;99.90
10155;DHT22;5118;48.570;7.916;2022-11-14T11:20:31;9.90;99.90
10155;DHT22;5118;48.570;7.916;2022-11-14T11:23:21;10.30;99.90
10155;DHT22;5118;48.570;7.916;2022-11-14T11:26:17;10.70;99.90
10155;DHT22;5118;48.570;7.916;2022-11-14T11:29:07;11.10;99.90
10155;DHT22;5118;48.570;7.916;2022-11-14T11:32:00;11.40;99.90
10155;DHT22;5118;48.570;7.916;2022-11-14T11:34:47;11.70;99.90
10155;DHT22;5118;48.570;7.916;2022-11-14T11:37:39;11.80;99.90
10155;DHT22;5118;48.570;7.916;2022-11-14T11:40:28;11.90;99.90
10155;DHT22;5118;48.570;7.916;2022-11-14T11:43:23;11.80;99.90
10155;DHT22;5118;48.570;7.916;2022-11-14T11:46:32;11.70;99.90
10155;DHT22;5118;48.570;7.916;2022-11-14T11:49:31;11.50;99.90
10155;DHT22;5118;48.570;7.916;2022-11-14T11:52:27;11.30;99.90
10155;DHT22;5118;48.570;7.916;2022-11-14T11:55:22;11.10;99.90
10155;DHT22;5118;48.570;7.916;2022-11-14T11:58:16;11.10;99.90
10155;DHT22;5118;48.570;7.916;2022-11-14T12:01:09;11.00;99.90
10155;DHT22;5118;48.570;7.916;2022-11-14T12:03:56;11.00;99.90
10155;DHT22;5118;48.570;7.916;2022-11-14T12:06:47;10.90;99.90
10155;DHT22;5118;48.570;7.916;2022-11-14T12:09:38;11.00;99.90
10155;DHT22;5118;48.570;7.916;2022-11-14T12:16:30;11.10;99.90
10155;DHT22;5118;48.570;7.916;2022-11-14T12:19:46;11.10;99.90
10155;DHT22;5118;48.570;7.916;2022-11-14T12:26:05;11.40;99.90
10155;DHT22;5118;48.570;7.916;2022-11-14T12:29:06;11.60;99.90
10155;DHT22;5118;48.570;7.916;2022-11-14T12:32:04;11.70;99.90
10155;DHT22;5118;48.570;7.916;2022-11-14T12:34:53;11.80;99.90
10155;DHT22;5118;48.570;7.916;2022-11-14T12:37:43;12.00;99.90
10155;DHT22;5118;48.570;7.916;2022-11-14T12:40:40;12.10;99.90
10155;DHT22;5118;48.570;7.916;2022-11-14T12:43:35;12.30;99.90
10155;DHT22;5118;48.570;7.916;2022-11-14T12:46:23;12.40;99.90
10155;DHT22;5118;48.570;7.916;2022-11-14T12:49:36;12.50;99.90
10155;DHT22;5118;48.570;7.916;2022-11-14T12:52:44;12.50;99.90
10155;DHT22;5118;48.570;7.916;2022-11-14T12:55:53;12.50;99.90
10155;DHT22;5118;48.570;7.916;2022-11-14T12:59:01;12.50;99.90
10155;DHT22;5118;48.570;7.916;2022-11-14T13:02:08;12.40;99.90
10155;DHT22;5118;48.570;7.916;2022-11-14T13:05:24;12.40;99.90
10155;DHT22;5118;48.570;7.916;2022-11-14T13:11:35;12.40;99.90
10155;DHT22;5118;48.570;7.916;2022-11-14T13:14:54;12.50;99.90
10155;DHT22;5118;48.570;7.916;2022-11-14T13:18:12;12.50;99.90
10155;DHT22;5118;48.570;7.916;2022-11-14T13:21:22;12.60;99.90
10155;DHT22;5118;48.570;7.916;2022-11-14T13:27:50;12.60;99.90
10155;DHT22;5118;48.570;7.916;2022-11-14T13:31:17;12.60;99.90
10155;DHT22;5118;48.570;7.916;2022-11-14T13:34:28;12.70;99.90
10155;DHT22;5118;48.570;7.916;2022-11-14T13:37:33;12.70;99.90
10155;DHT22;5118;48.570;7.916;2022-11-14T13:40:27;12.80;99.90
10155;DHT22;5118;48.570;7.916;2022-11-14T13:43:23;12.80;99.90
10155;DHT22;5118;48.570;7.916;2022-11-14T13:46:23;12.80;99.90
10155;DHT22;5118;48.570;7.916;2022-11-14T13:49:31;12.90;99.90
10155;DHT22;5118;48.570;7.916;2022-11-14T13:52:27;12.80;99.90
10155;DHT22;5118;48.570;7.916;2022-11-14T13:55:20;12.90;99.90
10155;DHT22;5118;48.570;7.916;2022-11-14T13:58:16;13.00;99.90
10155;DHT22;5118;48.570;7.916;2022-11-14T14:01:14;13.10;99.90
10155;DHT22;5118;48.570;7.916;2022-11-14T14:04:18;13.20;99.90
10155;DHT22;5118;48.570;7.916;2022-11-14T14:07:12;13.40;99.90
10155;DHT22;5118;48.570;7.916;2022-11-14T14:10:07;13.60;99.90
10155;DHT22;5118;48.570;7.916;2022-11-14T14:13:10;13.70;99.90
10155;DHT22;5118;48.570;7.916;2022-11-14T14:16:04;13.80;99.90
10155;DHT22;5118;48.570;7.916;2022-11-14T14:19:01;13.90;99.90
10155;DHT22;5118;48.570;7.916;2022-11-14T14:21:54;14.00;99.90
10155;DHT22;5118;48.570;7.916;2022-11-14T14:24:50;14.20;99.90
10155;DHT22;5118;48.570;7.916;2022-11-14T14:27:50;14.40;99.90
10155;DHT22;5118;48.570;7.916;2022-11-14T14:30:39;14.40;99.90
10155;DHT22;5118;48.570;7.916;2022-11-14T14:33:26;14.30;99.90
10155;DHT22;5118;48.570;7.916;2022-11-14T14:36:22;14.20;99.90
10155;DHT22;5118;48.570;7.916;2022-11-14T14:39:17;14.20;99.90
10155;DHT22;5118;48.570;7.916;2022-11-14T14:42:10;14.00;99.90
10155;DHT22;5118;48.570;7.916;2022-11-14T14:44:58;14.00;99.90
10155;DHT22;5118;48.570;7.916;2022-11-14T14:47:47;13.90;99.90
10155;DHT22;5118;48.570;7.916;2022-11-14T14:50:38;13.80;99.90
10155;DHT22;5118;48.570;7.916;2022-11-14T14:53:27;13.70;99.90
10155;DHT22;5118;48.570;7.916;2022-11-14T14:56:18;13.70;99.90
10155;DHT22;5118;48.570;7.916;2022-11-14T14:59:15;13.60;99.90
10155;DHT22;5118;48.570;7.916;2022-11-14T15:02:12;13.60;99.90
10155;DHT22;5118;48.570;7.916;2022-11-14T15:05:01;13.60;99.90
10155;DHT22;5118;48.570;7.916;2022-11-14T15:07:48;13.60;99.90
10155;DHT22;5118;48.570;7.916;2022-11-14T15:10:36;13.50;99.90
10155;DHT22;5118;48.570;7.916;2022-11-14T15:13:24;13.50;99.90
10155;DHT22;5118;48.570;7.916;2022-11-14T15:16:13;13.40;99.90
10155;DHT22;5118;48.570;7.916;2022-11-14T15:19:04;13.40;99.90
10155;DHT22;5118;48.570;7.916;2022-11-14T15:22:21;13.30;99.90
10155;DHT22;5118;48.570;7.916;2022-11-14T15:25:18;13.30;99.90
10155;DHT22;5118;48.570;7.916;2022-11-14T15:28:13;13.20;99.90
10155;DHT22;5118;48.570;7.916;2022-11-14T15:31:02;13.20;99.90
10155;DHT22;5118;48.570;7.916;2022-11-14T15:34:05;13.20;99.90
10155;DHT22;5118;48.570;7.916;2022-11-14T15:37:17;13.20;99.90
10155;DHT22;5118;48.570;7.916;2022-11-14T15:40:16;13.20;99.90
10155;DHT22;5118;48.570;7.916;2022-11-14T15:43:36;13.20;99.90
10155;DHT22;5118;48.570;7.916;2022-11-14T15:46:41;13.20;99.90
10155;DHT22;5118;48.570;7.916;2022-11-14T15:49:33;13.30;99.90
10155;DHT22;5118;48.570;7.916;2022-11-14T15:52:22;13.30;99.90
10155;DHT22;5118;48.570;7.916;2022-11-14T15:55:13;13.30;99.90
10155;DHT22;5118;48.570;7.916;2022-11-14T15:58:00;13.30;99.90
10155;DHT22;5118;48.570;7.916;2022-11-14T16:01:12;13.30;99.90
10155;DHT22;5118;48.570;7.916;2022-11-14T16:04:01;13.30;99.90
10155;DHT22;5118;48.570;7.916;2022-11-14T16:06:50;13.30;99.90
10155;DHT22;5118;48.570;7.916;2022-11-14T16:09:38;13.30;99.90
10155;DHT22;5118;48.570;7.916;2022-11-14T16:12:25;13.30;99.90
10155;DHT22;5118;48.570;7.916;2022-11-14T16:15:11;13.30;99.90
10155;DHT22;5118;48.570;7.916;2022-11-14T16:17:58;13.20;99.90
10155;DHT22;5118;48.570;7.916;2022-11-14T16:20:46;13.00;99.90
10155;DHT22;5118;48.570;7.916;2022-11-14T16:23:34;12.80;99.90
10155;DHT22;5118;48.570;7.916;2022-11-14T16:26:22;12.60;99.90
10155;DHT22;5118;48.570;7.916;2022-11-14T16:29:11;12.40;99.90
10155;DHT22;5118;48.570;7.916;2022-11-14T16:31:58;12.30;99.90
10155;DHT22;5118;48.570;7.916;2022-11-14T16:34:44;12.10;99.90
10155;DHT22;5118;48.570;7.916;2022-11-14T16:37:31;12.10;99.90
10155;DHT22;5118;48.570;7.916;2022-11-14T16:40:22;12.00;99.90
10155;DHT22;5118;48.570;7.916;2022-11-14T16:43:12;11.90;99.90
10155;DHT22;5118;48.570;7.916;2022-11-14T16:46:02;11.90;99.90
10155;DHT22;5118;48.570;7.916;2022-11-14T16:48:50;11.80;99.90
10155;DHT22;5118;48.570;7.916;2022-11-14T16:51:37;11.80;99.90
10155;DHT22;5118;48.570;7.916;2022-11-14T16:54:33;11.70;99.90
10155;DHT22;5118;48.570;7.916;2022-11-14T16:57:22;11.70;99.90
10155;DHT22;5118;48.570;7.916;2022-11-14T17:00:11;11.60;99.90
10155;DHT22;5118;48.570;7.916;2022-11-14T17:02:58;11.50;99.90
10155;DHT22;5118;48.570;7.916;2022-11-14T17:05:46;11.50;99.90
10155;DHT22;5118;48.570;7.916;2022-11-14T17:08:34;11.40;99.90
10155;DHT22;5118;48.570;7.916;2022-11-14T17:11:21;11.40;99.90
10155;DHT22;5118;48.570;7.916;2022-11-14T17:14:09;11.30;99.90
10155;DHT22;5118;48.570;7.916;2022-11-14T17:16:56;11.30;99.90
10155;DHT22;5118;48.570;7.916;2022-11-14T17:19:48;11.20;99.90
10155;DHT22;5118;48.570;7.916;2022-11-14T17:22:36;11.20;99.90
10155;DHT22;5118;48.570;7.916;2022-11-14T17:25:23;11.20;99.90
10155;DHT22;5118;48.570;7.916;2022-11-14T17:28:09;11.20;99.90
10155;DHT22;5118;48.570;7.916;2022-11-14T17:30:58;11.20;99.90
10155;DHT22;5118;48.570;7.916;2022-11-14T17:33:49;11.20;99.90
10155;DHT22;5118;48.570;7.916;2022-11-14T17:36:36;11.20;99.90
10155;DHT22;5118;48.570;7.916;2022-11-14T17:39:23;11.20;99.90
10155;DHT22;5118;48.570;7.916;2022-11-14T17:42:10;11.10;99.90
10155;DHT22;5118;48.570;7.916;2022-11-14T17:44:57;11.10;99.90
10155;DHT22;5118;48.570;7.916;2022-11-14T17:47:47;11.10;99.90
10155;DHT22;5118;48.570;7.916;2022-11-14T17:50:37;11.00;99.90
10155;DHT22;5118;48.570;7.916;2022-11-14T17:53:24;10.90;99.90
10155;DHT22;5118;48.570;7.916;2022-11-14T17:56:13;10.90;99.90
10155;DHT22;5118;48.570;7.916;2022-11-14T17:59:00;10.80;99.90
10155;DHT22;5118;48.570;7.916;2022-11-14T18:01:47;10.80;99.90
10155;DHT22;5118;48.570;7.916;2022-11-14T18:04:36;10.70;99.90
10155;DHT22;5118;48.570;7.916;2022-11-14T18:07:23;10.60;99.90
10155;DHT22;5118;48.570;7.916;2022-11-14T18:10:10;10.60;99.90
10155;DHT22;5118;48.570;7.916;2022-11-14T18:12:57;10.50;99.90
10155;DHT22;5118;48.570;7.916;2022-11-14T18:15:48;10.40;99.90
10155;DHT22;5118;48.570;7.916;2022-11-14T18:18:36;10.40;99.90
10155;DHT22;5118;48.570;7.916;2022-11-14T18:21:24;10.30;99.90
10155;DHT22;5118;48.570;7.916;2022-11-14T18:24:12;10.30;99.90
10155;DHT22;5118;48.570;7.916;2022-11-14T18:26:59;10.30;99.90
10155;DHT22;5118;48.570;7.916;2022-11-14T18:29:46;10.30;99.90
10155;DHT22;5118;48.570;7.916;2022-11-14T18:32:34;10.30;99.90
10155;DHT22;5118;48.570;7.916;2022-11-14T18:35:23;10.30;99.90
10155;DHT22;5118;48.570;7.916;2022-11-14T18:38:12;10.30;99.90
10155;DHT22;5118;48.570;7.916;2022-11-14T18:41:00;10.30;99.90
10155;DHT22;5118;48.570;7.916;2022-11-14T18:43:48;10.20;99.90